Aérodrome :
LOGIN :

S'inscrire | Disclaimer

   EN    FR    IT 

 










Légende :    VFR   VFR Marginal   IFR   IFR Intensif   IFR Très Intensif
Visi : 
Plafond : 
>= 8 km
>= 3000ft
5 à 8 km
1000 à 3000 ft
1500m à 5 km
500 à 1000 ft
800 à 1500m
200 à 500 ft
< 800m
< 200 ft
Symboles :   Orages  Brouillard  Fortes neiges  Fortes précipitations  Vent > 20 kt
SIGMETs :   Divers  Orages  Givrage  Turbulence  Onde Orograph.  Cendres Volcan.







- Altitude de l'aérodrome : 55 ft
- Voir les cartes d'approche


EGNO - Warton Preston

DERNIER METAR :
  • 140750Z 27017KT 9999 VCSH FEW019 SCT025 BKN034 05/03 Q0986

METARs EXPIRÉS :
  • 140720Z 27022KT 9999 -RA SCT014 BKN019 05/03 Q0986
  • 140650Z 28021G31KT 8000 RA SCT017 BKN021 04/02 Q0986

TAF TAF EGNO
Valide du 14 à 08h jusqu'au 14 à 15h UTC


140740Z 1408/1415 25012KT 9999 SCT020
TEMPO 1408/1415 4000 SHRAGS BKN010
TEMPO 1408/1410 26020G30KT
ATIS : +44 1772 856 060
Pas de NOTAMs connus pour ce terrain.
1 SIGMET publié pour la FIR London (EGTT) :
 
Turbulence forte
EGTT SIGMET 02 VALID 140700/141100 EGRR
EGTT LONDON FIR SEV TURB FCST SW OF LINE N5100 W00800 - N5000 W00200 SFC/FL060 MOV S 10KT WKN=



MET'MAP, la Météo Aéronautique d'un coup d'oeil ! - Copyright ORBIFLY Décembre 2007 - Disclaimer

ORBIFLY MET'MAP TEAM :

Programmation & Développement : Alexandra Zaïnal
Conception & Développement : Baudouin d'Aumeries
Co-Programmation & Développement : Marc-Olivier Méhu
Soutien technique & logistique : Manuel Goepfert

Contact : metmap@orbifly.com




SOURCES & CREDITS :

   NOAA